F/V Anna Mamm Mari — FOHD — position and weather

sailwx.info

Track history (hours):
 
Tides and Currents Weather Stations Pressure Air Temp Water Temp Dewpoint Dewpoint Depression Visibility Wind Speed Wind Dir Waves Ship Positions

F/V Anna Mamm Mari

Last reported at 2017-Jan-24 08:12 UTC. Time now 2017-Jan-24 13:21 UTC.
Position N 45°58' W 001°48'.

Length 17 m.

Type: Fishing. MMSI: 228393000.

Date/timePositionNaut miles runAvg speedWind from/ knotsBaromVisibWave heightAir tempDewpointWater temp
2017-Jan-24 08:12N 45°58' W 001°48'18 2.3
2017-Jan-24 00:33N 46°16' W 001°47'8 8.5
2017-Jan-23 23:33N 46°24' W 001°47'6 5.8
2017-Jan-23 22:33N 46°30' W 001°47'0 0.2
2017-Jan-23 21:33N 46°30' W 001°47'0 0.0
2017-Jan-23 20:33N 46°30' W 001°47'6 5.6
2017-Jan-23 19:33N 46°24' W 001°48'9 9.0
2017-Jan-23 18:33N 46°15' W 001°48'18 0.6
2017-Jan-22 10:26N 45°57' W 001°45'1 1.2
2017-Jan-22 09:30N 45°57' W 001°47'0 0.5
2017-Jan-22 08:33N 45°57' W 001°48'0 0.1
2017-Jan-22 07:33N 45°57' W 001°47'0 0.5
2017-Jan-22 06:33N 45°58' W 001°47'1 0.6
2017-Jan-22 05:33N 45°58' W 001°46'0 0.3
2017-Jan-22 04:33N 45°58' W 001°47'0 0.2
2017-Jan-22 03:33N 45°58' W 001°47'1 1.1
2017-Jan-22 02:33N 45°57' W 001°47'0 0.0
2017-Jan-22 01:32N 45°57' W 001°47'0 0.0
2017-Jan-22 00:30N 45°57' W 001°47'1 0.1
2017-Jan-21 07:25N 45°58' W 001°48'1 1.3
2017-Jan-21 06:23N 45°57' W 001°48'1 0.6
2017-Jan-21 04:30N 45°58' W 001°48'1 0.6
2017-Jan-21 03:25N 45°57' W 001°48'0 0.4
2017-Jan-21 02:17N 45°57' W 001°47'1 1.2
2017-Jan-21 01:33N 45°58' W 001°47'0 0.2
2017-Jan-21 00:32N 45°58' W 001°47'0 0.0
2017-Jan-20 23:31N 45°58' W 001°47'16 1.3
2017-Jan-20 11:20N 46°13' W 001°50'6 8.2
2017-Jan-20 10:33N 46°20' W 001°49'8 8.5
2017-Jan-20 09:33N 46°28' W 001°47'2 1.9
2017-Jan-20 08:33N 46°30' W 001°47'0 0.0
2017-Jan-20 07:33N 46°30' W 001°47'0 0.0
2017-Jan-20 06:33N 46°30' W 001°47'0 0.0
2017-Jan-20 05:33N 46°30' W 001°47'0 0.0
2017-Jan-20 04:33N 46°30' W 001°47'0 0.0
2017-Jan-20 03:33N 46°30' W 001°47'0 0.0
2017-Jan-20 02:33N 46°30' W 001°47'0 0.0
2017-Jan-20 01:33N 46°30' W 001°47'0 0.0
2017-Jan-20 00:33N 46°30' W 001°47'0 0.0
2017-Jan-19 23:33N 46°30' W 001°47'0 0.0
2017-Jan-19 22:33N 46°30' W 001°47'0 0.0
2017-Jan-19 21:33N 46°30' W 001°47'0 0.0
2017-Jan-19 20:33N 46°30' W 001°47'0 0.0
2017-Jan-19 19:33N 46°30' W 001°47'0 0.0
2017-Jan-19 18:33N 46°30' W 001°47'0 0.0
2017-Jan-19 17:33N 46°30' W 001°47'0 0.0
2017-Jan-19 16:33N 46°30' W 001°47'0 0.0
2017-Jan-19 15:33N 46°30' W 001°47'0 0.0
2017-Jan-19 14:33N 46°30' W 001°47'0 0.0
2017-Jan-19 13:33N 46°30' W 001°47'0 0.0
2017-Jan-19 12:33N 46°30' W 001°47'0 0.0
2017-Jan-19 11:33N 46°30' W 001°47'0 0.0
2017-Jan-19 10:33N 46°30' W 001°47'0 0.0
2017-Jan-19 09:33N 46°30' W 001°47'0 0.0
2017-Jan-19 08:33N 46°30' W 001°47'0 0.0
2017-Jan-19 07:33N 46°30' W 001°47'0 0.0
2017-Jan-19 02:34N 46°30' W 001°47'0 0.0
2017-Jan-19 01:34N 46°30' W 001°47'0 0.0
2017-Jan-19 00:33N 46°30' W 001°47'0 0.0
2017-Jan-18 23:33N 46°30' W 001°47'0 0.0
2017-Jan-18 22:33N 46°30' W 001°47'0 0.0
2017-Jan-18 21:33N 46°30' W 001°47'0 0.0
2017-Jan-18 20:34N 46°30' W 001°47'0 0.0
2017-Jan-18 19:33N 46°30' W 001°47'0 0.0
2017-Jan-18 18:33N 46°30' W 001°47'0 0.0
2017-Jan-18 17:34N 46°30' W 001°47'0 0.0
2017-Jan-18 16:34N 46°30' W 001°47'0 0.0
2017-Jan-18 15:34N 46°30' W 001°47'0 0.0
2017-Jan-18 14:34N 46°30' W 001°47'0 0.0
2017-Jan-18 13:33N 46°30' W 001°47'0 0.0
2017-Jan-18 12:34N 46°30' W 001°47'0 0.0
2017-Jan-18 11:34N 46°30' W 001°47'0 0.0
2017-Jan-18 10:34N 46°30' W 001°47'0 0.0
2017-Jan-18 09:33N 46°30' W 001°47'0 0.0
2017-Jan-18 08:33N 46°30' W 001°47'0 0.0
2017-Jan-18 07:34N 46°30' W 001°47'0 0.0
2017-Jan-18 06:34N 46°30' W 001°47'0 0.2
2017-Jan-18 05:34N 46°30' W 001°47'7 6.6
2017-Jan-18 04:34N 46°23' W 001°48'8 8.3
2017-Jan-18 03:34N 46°15' W 001°49'0 0.0
2017-Jan-17 12:17N 46°15' W 001°50'7 9.3
2017-Jan-17 11:34N 46°22' W 001°49'8 8.0
2017-Jan-17 10:34N 46°30' W 001°47'0 0.0
2017-Jan-17 09:34N 46°30' W 001°47'0 0.0
2017-Jan-17 08:34N 46°30' W 001°47'0 0.0
2017-Jan-17 07:34N 46°30' W 001°47'0 0.0
2017-Jan-17 06:34N 46°30' W 001°47'0 0.0
2017-Jan-17 05:33N 46°30' W 001°47'0 0.0
2017-Jan-17 04:34N 46°30' W 001°47'0 0.0
2017-Jan-17 03:33N 46°30' W 001°47'0 0.0
2017-Jan-17 02:34N 46°30' W 001°47'0 0.0
2017-Jan-17 01:34N 46°30' W 001°47'0 0.0
2017-Jan-17 00:34N 46°30' W 001°47'0 0.0
2017-Jan-16 23:34N 46°30' W 001°47'0 0.0
2017-Jan-16 22:34N 46°30' W 001°47'0 0.0
2017-Jan-16 21:34N 46°30' W 001°47'0 0.0
2017-Jan-16 20:33N 46°30' W 001°47'0 0.0
2017-Jan-16 19:34N 46°30' W 001°47'0 0.0
2017-Jan-16 18:34N 46°30' W 001°47'0 0.0
2017-Jan-16 17:33N 46°30' W 001°47'0 0.0
2017-Jan-16 16:34N 46°30' W 001°47'0 0.0
2017-Jan-16 15:33N 46°30' W 001°47'0 0.0
2017-Jan-16 14:34N 46°30' W 001°47'0 0.0
2017-Jan-16 13:33N 46°30' W 001°47'0 0.0
2017-Jan-16 12:34N 46°30' W 001°47'0 0.0
2017-Jan-16 11:34N 46°30' W 001°47'0 0.0
2017-Jan-16 10:34N 46°30' W 001°47'0 0.0
2017-Jan-16 09:34N 46°30' W 001°47'0 0.0
2017-Jan-16 08:33N 46°30' W 001°47'0 0.0
2017-Jan-16 07:33N 46°30' W 001°47'0 0.0
2017-Jan-16 06:33N 46°30' W 001°47'0 0.0
2017-Jan-16 05:34N 46°30' W 001°47'0 0.0
2017-Jan-16 04:33N 46°30' W 001°47'0 0.0
2017-Jan-16 03:33N 46°30' W 001°47'0 0.0
2017-Jan-16 02:34N 46°30' W 001°47'0 0.0
2017-Jan-16 01:34N 46°30' W 001°47'0 0.0
2017-Jan-16 00:34N 46°30' W 001°47'0 0.0
2017-Jan-15 23:33N 46°30' W 001°47'0 0.0
2017-Jan-15 22:34N 46°30' W 001°47'0 0.0
2017-Jan-15 21:34N 46°30' W 001°47'0 0.1
2017-Jan-15 20:34N 46°30' W 001°47'0 0.1
2017-Jan-15 19:34N 46°30' W 001°47'6 5.6
2017-Jan-15 18:34N 46°24' W 001°48'8 8.1
2017-Jan-15 17:33N 46°16' W 001°49'  
Track history (hours):
 
Tides and Currents Weather Stations Pressure Air Temp Water Temp Dewpoint Dewpoint Depression Visibility Wind Speed Wind Dir Waves Ship Positions

F/V Anna Mamm Mari

Last reported at 2017-Jan-24 08:12 UTC. Time now 2017-Jan-24 13:21 UTC.
Position N 45°58' W 001°48'.

Length 17 m.

Type: Fishing. MMSI: 228393000.

Date/timePositionNaut miles runAvg speedWind from/ knotsBaromVisibWave heightAir tempDewpointWater temp
2017-Jan-24 08:12N 45°58' W 001°48'18 2.3
2017-Jan-24 00:33N 46°16' W 001°47'8 8.5
2017-Jan-23 23:33N 46°24' W 001°47'6 5.8
2017-Jan-23 22:33N 46°30' W 001°47'0 0.2
2017-Jan-23 21:33N 46°30' W 001°47'0 0.0
2017-Jan-23 20:33N 46°30' W 001°47'6 5.6
2017-Jan-23 19:33N 46°24' W 001°48'9 9.0
2017-Jan-23 18:33N 46°15' W 001°48'18 0.6
2017-Jan-22 10:26N 45°57' W 001°45'1 1.2
2017-Jan-22 09:30N 45°57' W 001°47'0 0.5
2017-Jan-22 08:33N 45°57' W 001°48'0 0.1
2017-Jan-22 07:33N 45°57' W 001°47'0 0.5
2017-Jan-22 06:33N 45°58' W 001°47'1 0.6
2017-Jan-22 05:33N 45°58' W 001°46'0 0.3
2017-Jan-22 04:33N 45°58' W 001°47'0 0.2
2017-Jan-22 03:33N 45°58' W 001°47'1 1.1
2017-Jan-22 02:33N 45°57' W 001°47'0 0.0
2017-Jan-22 01:32N 45°57' W 001°47'0 0.0
2017-Jan-22 00:30N 45°57' W 001°47'1 0.1
2017-Jan-21 07:25N 45°58' W 001°48'1 1.3
2017-Jan-21 06:23N 45°57' W 001°48'1 0.6
2017-Jan-21 04:30N 45°58' W 001°48'1 0.6
2017-Jan-21 03:25N 45°57' W 001°48'0 0.4
2017-Jan-21 02:17N 45°57' W 001°47'1 1.2
2017-Jan-21 01:33N 45°58' W 001°47'0 0.2
2017-Jan-21 00:32N 45°58' W 001°47'0 0.0
2017-Jan-20 23:31N 45°58' W 001°47'16 1.3
2017-Jan-20 11:20N 46°13' W 001°50'6 8.2
2017-Jan-20 10:33N 46°20' W 001°49'8 8.5
2017-Jan-20 09:33N 46°28' W 001°47'2 1.9
2017-Jan-20 08:33N 46°30' W 001°47'0 0.0
2017-Jan-20 07:33N 46°30' W 001°47'0 0.0
2017-Jan-20 06:33N 46°30' W 001°47'0 0.0
2017-Jan-20 05:33N 46°30' W 001°47'0 0.0
2017-Jan-20 04:33N 46°30' W 001°47'0 0.0
2017-Jan-20 03:33N 46°30' W 001°47'0 0.0
2017-Jan-20 02:33N 46°30' W 001°47'0 0.0
2017-Jan-20 01:33N 46°30' W 001°47'0 0.0
2017-Jan-20 00:33N 46°30' W 001°47'0 0.0
2017-Jan-19 23:33N 46°30' W 001°47'0 0.0
2017-Jan-19 22:33N 46°30' W 001°47'0 0.0
2017-Jan-19 21:33N 46°30' W 001°47'0 0.0
2017-Jan-19 20:33N 46°30' W 001°47'0 0.0
2017-Jan-19 19:33N 46°30' W 001°47'0 0.0
2017-Jan-19 18:33N 46°30' W 001°47'0 0.0
2017-Jan-19 17:33N 46°30' W 001°47'0 0.0
2017-Jan-19 16:33N 46°30' W 001°47'0 0.0
2017-Jan-19 15:33N 46°30' W 001°47'0 0.0
2017-Jan-19 14:33N 46°30' W 001°47'0 0.0
2017-Jan-19 13:33N 46°30' W 001°47'0 0.0
2017-Jan-19 12:33N 46°30' W 001°47'0 0.0
2017-Jan-19 11:33N 46°30' W 001°47'0 0.0
2017-Jan-19 10:33N 46°30' W 001°47'0 0.0
2017-Jan-19 09:33N 46°30' W 001°47'0 0.0
2017-Jan-19 08:33N 46°30' W 001°47'0 0.0
2017-Jan-19 07:33N 46°30' W 001°47'0 0.0
2017-Jan-19 02:34N 46°30' W 001°47'0 0.0
2017-Jan-19 01:34N 46°30' W 001°47'0 0.0
2017-Jan-19 00:33N 46°30' W 001°47'0 0.0
2017-Jan-18 23:33N 46°30' W 001°47'0 0.0
2017-Jan-18 22:33N 46°30' W 001°47'0 0.0
2017-Jan-18 21:33N 46°30' W 001°47'0 0.0
2017-Jan-18 20:34N 46°30' W 001°47'0 0.0
2017-Jan-18 19:33N 46°30' W 001°47'0 0.0
2017-Jan-18 18:33N 46°30' W 001°47'0 0.0
2017-Jan-18 17:34N 46°30' W 001°47'0 0.0
2017-Jan-18 16:34N 46°30' W 001°47'0 0.0
2017-Jan-18 15:34N 46°30' W 001°47'0 0.0
2017-Jan-18 14:34N 46°30' W 001°47'0 0.0
2017-Jan-18 13:33N 46°30' W 001°47'0 0.0
2017-Jan-18 12:34N 46°30' W 001°47'0 0.0
2017-Jan-18 11:34N 46°30' W 001°47'0 0.0
2017-Jan-18 10:34N 46°30' W 001°47'0 0.0
2017-Jan-18 09:33N 46°30' W 001°47'0 0.0
2017-Jan-18 08:33N 46°30' W 001°47'0 0.0
2017-Jan-18 07:34N 46°30' W 001°47'0 0.0
2017-Jan-18 06:34N 46°30' W 001°47'0 0.2
2017-Jan-18 05:34N 46°30' W 001°47'7 6.6
2017-Jan-18 04:34N 46°23' W 001°48'8 8.3
2017-Jan-18 03:34N 46°15' W 001°49'0 0.0
2017-Jan-17 12:17N 46°15' W 001°50'7 9.3
2017-Jan-17 11:34N 46°22' W 001°49'8 8.0
2017-Jan-17 10:34N 46°30' W 001°47'0 0.0
2017-Jan-17 09:34N 46°30' W 001°47'0 0.0
2017-Jan-17 08:34N 46°30' W 001°47'0 0.0
2017-Jan-17 07:34N 46°30' W 001°47'0 0.0
2017-Jan-17 06:34N 46°30' W 001°47'0 0.0
2017-Jan-17 05:33N 46°30' W 001°47'0 0.0
2017-Jan-17 04:34N 46°30' W 001°47'0 0.0
2017-Jan-17 03:33N 46°30' W 001°47'0 0.0
2017-Jan-17 02:34N 46°30' W 001°47'0 0.0
2017-Jan-17 01:34N 46°30' W 001°47'0 0.0
2017-Jan-17 00:34N 46°30' W 001°47'0 0.0
2017-Jan-16 23:34N 46°30' W 001°47'0 0.0
2017-Jan-16 22:34N 46°30' W 001°47'0 0.0
2017-Jan-16 21:34N 46°30' W 001°47'0 0.0
2017-Jan-16 20:33N 46°30' W 001°47'0 0.0
2017-Jan-16 19:34N 46°30' W 001°47'0 0.0
2017-Jan-16 18:34N 46°30' W 001°47'0 0.0
2017-Jan-16 17:33N 46°30' W 001°47'0 0.0
2017-Jan-16 16:34N 46°30' W 001°47'0 0.0
2017-Jan-16 15:33N 46°30' W 001°47'0 0.0
2017-Jan-16 14:34N 46°30' W 001°47'0 0.0
2017-Jan-16 13:33N 46°30' W 001°47'0 0.0
2017-Jan-16 12:34N 46°30' W 001°47'0 0.0
2017-Jan-16 11:34N 46°30' W 001°47'0 0.0
2017-Jan-16 10:34N 46°30' W 001°47'0 0.0
2017-Jan-16 09:34N 46°30' W 001°47'0 0.0
2017-Jan-16 08:33N 46°30' W 001°47'0 0.0
2017-Jan-16 07:33N 46°30' W 001°47'0 0.0
2017-Jan-16 06:33N 46°30' W 001°47'0 0.0
2017-Jan-16 05:34N 46°30' W 001°47'0 0.0
2017-Jan-16 04:33N 46°30' W 001°47'0 0.0
2017-Jan-16 03:33N 46°30' W 001°47'0 0.0
2017-Jan-16 02:34N 46°30' W 001°47'0 0.0
2017-Jan-16 01:34N 46°30' W 001°47'0 0.0
2017-Jan-16 00:34N 46°30' W 001°47'0 0.0
2017-Jan-15 23:33N 46°30' W 001°47'0 0.0
2017-Jan-15 22:34N 46°30' W 001°47'0 0.0
2017-Jan-15 21:34N 46°30' W 001°47'0 0.1
2017-Jan-15 20:34N 46°30' W 001°47'0 0.1
2017-Jan-15 19:34N 46°30' W 001°47'6 5.6
2017-Jan-15 18:34N 46°24' W 001°48'8 8.1
2017-Jan-15 17:33N 46°16' W 001°49'  

Dump ship's entire track history